sensor_id;sensor_type;location;lat;lon;timestamp;P1;durP1;ratioP1;P2;durP2;ratioP2
27543;SDS011;17996;51.056;3.656;2023-09-19T00:00:36;12.93;;;2.88;;
27543;SDS011;17996;51.056;3.656;2023-09-19T00:03:02;18.13;;;2.80;;
27543;SDS011;17996;51.056;3.656;2023-09-19T00:05:29;10.32;;;2.63;;
27543;SDS011;17996;51.056;3.656;2023-09-19T00:08:00;10.23;;;2.60;;
27543;SDS011;17996;51.056;3.656;2023-09-19T00:10:26;12.82;;;2.67;;
27543;SDS011;17996;51.056;3.656;2023-09-19T00:12:56;17.17;;;3.70;;
27543;SDS011;17996;51.056;3.656;2023-09-19T00:15:24;18.63;;;4.03;;
27543;SDS011;17996;51.056;3.656;2023-09-19T00:17:53;8.88;;;2.65;;
27543;SDS011;17996;51.056;3.656;2023-09-19T00:20:19;11.75;;;3.33;;
27543;SDS011;17996;51.056;3.656;2023-09-19T00:22:48;15.30;;;3.27;;
27543;SDS011;17996;51.056;3.656;2023-09-19T00:25:15;15.77;;;3.20;;
27543;SDS011;17996;51.056;3.656;2023-09-19T00:27:42;12.00;;;3.33;;
27543;SDS011;17996;51.056;3.656;2023-09-19T00:30:09;10.68;;;2.55;;
27543;SDS011;17996;51.056;3.656;2023-09-19T00:32:55;10.77;;;2.65;;
27543;SDS011;17996;51.056;3.656;2023-09-19T00:35:21;16.88;;;3.22;;
27543;SDS011;17996;51.056;3.656;2023-09-19T00:37:50;11.95;;;3.22;;
27543;SDS011;17996;51.056;3.656;2023-09-19T00:40:16;18.48;;;3.45;;
27543;SDS011;17996;51.056;3.656;2023-09-19T00:42:42;13.00;;;3.20;;
27543;SDS011;17996;51.056;3.656;2023-09-19T00:45:10;12.88;;;3.10;;
27543;SDS011;17996;51.056;3.656;2023-09-19T00:47:40;14.40;;;3.40;;
27543;SDS011;17996;51.056;3.656;2023-09-19T00:50:11;11.43;;;3.22;;
27543;SDS011;17996;51.056;3.656;2023-09-19T00:52:40;11.63;;;2.53;;
27543;SDS011;17996;51.056;3.656;2023-09-19T00:55:07;12.02;;;3.00;;
27543;SDS011;17996;51.056;3.656;2023-09-19T00:57:34;10.50;;;3.20;;
27543;SDS011;17996;51.056;3.656;2023-09-19T01:00:03;18.27;;;4.15;;
27543;SDS011;17996;51.056;3.656;2023-09-19T01:02:31;11.02;;;2.78;;
27543;SDS011;17996;51.056;3.656;2023-09-19T01:04:58;14.95;;;3.05;;
27543;SDS011;17996;51.056;3.656;2023-09-19T01:07:25;9.60;;;2.47;;
27543;SDS011;17996;51.056;3.656;2023-09-19T01:09:51;11.68;;;3.47;;
27543;SDS011;17996;51.056;3.656;2023-09-19T01:12:28;18.30;;;3.70;;
27543;SDS011;17996;51.056;3.656;2023-09-19T01:15:55;16.67;;;3.03;;
27543;SDS011;17996;51.056;3.656;2023-09-19T01:29:38;14.45;;;3.15;;
27543;SDS011;17996;51.056;3.656;2023-09-19T01:32:10;17.67;;;3.55;;
27543;SDS011;17996;51.056;3.656;2023-09-19T01:34:55;18.65;;;3.53;;
27543;SDS011;17996;51.056;3.656;2023-09-19T01:37:29;13.82;;;2.67;;
27543;SDS011;17996;51.056;3.656;2023-09-19T01:40:03;8.82;;;3.17;;
27543;SDS011;17996;51.056;3.656;2023-09-19T01:51:32;12.68;;;2.85;;
27543;SDS011;17996;51.056;3.656;2023-09-19T01:54:11;17.65;;;3.28;;
27543;SDS011;17996;51.056;3.656;2023-09-19T01:56:45;11.90;;;2.67;;
27543;SDS011;17996;51.056;3.656;2023-09-19T01:59:17;16.98;;;3.45;;
27543;SDS011;17996;51.056;3.656;2023-09-19T02:01:49;17.33;;;3.65;;
27543;SDS011;17996;51.056;3.656;2023-09-19T02:04:19;14.70;;;3.17;;
27543;SDS011;17996;51.056;3.656;2023-09-19T02:06:45;15.57;;;4.03;;
27543;SDS011;17996;51.056;3.656;2023-09-19T02:09:13;16.85;;;2.97;;
27543;SDS011;17996;51.056;3.656;2023-09-19T02:11:39;14.23;;;2.83;;
27543;SDS011;17996;51.056;3.656;2023-09-19T02:14:06;13.85;;;3.20;;
27543;SDS011;17996;51.056;3.656;2023-09-19T02:16:33;18.65;;;3.10;;
27543;SDS011;17996;51.056;3.656;2023-09-19T02:21:31;17.67;;;3.72;;
27543;SDS011;17996;51.056;3.656;2023-09-19T02:23:57;18.00;;;3.42;;
27543;SDS011;17996;51.056;3.656;2023-09-19T02:26:23;20.85;;;3.63;;
27543;SDS011;17996;51.056;3.656;2023-09-19T02:28:49;19.25;;;3.80;;
27543;SDS011;17996;51.056;3.656;2023-09-19T02:31:15;18.45;;;3.72;;
27543;SDS011;17996;51.056;3.656;2023-09-19T02:33:41;12.60;;;2.92;;
27543;SDS011;17996;51.056;3.656;2023-09-19T02:36:08;14.85;;;3.35;;
27543;SDS011;17996;51.056;3.656;2023-09-19T02:38:34;15.20;;;3.67;;
27543;SDS011;17996;51.056;3.656;2023-09-19T02:41:00;17.77;;;3.85;;
27543;SDS011;17996;51.056;3.656;2023-09-19T02:43:26;19.02;;;3.78;;
27543;SDS011;17996;51.056;3.656;2023-09-19T02:45:52;26.73;;;3.58;;
27543;SDS011;17996;51.056;3.656;2023-09-19T02:48:18;13.40;;;3.42;;
27543;SDS011;17996;51.056;3.656;2023-09-19T02:50:44;18.02;;;3.45;;
27543;SDS011;17996;51.056;3.656;2023-09-19T02:53:10;18.75;;;3.80;;
27543;SDS011;17996;51.056;3.656;2023-09-19T02:55:38;14.02;;;3.55;;
27543;SDS011;17996;51.056;3.656;2023-09-19T02:58:05;17.48;;;3.65;;
27543;SDS011;17996;51.056;3.656;2023-09-19T03:00:33;17.83;;;2.60;;
27543;SDS011;17996;51.056;3.656;2023-09-19T03:03:01;18.05;;;4.25;;
27543;SDS011;17996;51.056;3.656;2023-09-19T03:05:27;15.88;;;3.83;;
27543;SDS011;17996;51.056;3.656;2023-09-19T03:07:56;12.73;;;3.05;;
27543;SDS011;17996;51.056;3.656;2023-09-19T03:10:22;19.45;;;3.67;;
27543;SDS011;17996;51.056;3.656;2023-09-19T03:12:49;11.30;;;3.10;;
27543;SDS011;17996;51.056;3.656;2023-09-19T03:15:15;14.45;;;4.35;;
27543;SDS011;17996;51.056;3.656;2023-09-19T03:17:43;11.52;;;3.40;;
27543;SDS011;17996;51.056;3.656;2023-09-19T03:20:12;10.82;;;2.65;;
27543;SDS011;17996;51.056;3.656;2023-09-19T03:22:39;9.60;;;2.33;;
27543;SDS011;17996;51.056;3.656;2023-09-19T03:25:05;16.00;;;3.33;;
27543;SDS011;17996;51.056;3.656;2023-09-19T03:27:35;13.20;;;3.03;;
27543;SDS011;17996;51.056;3.656;2023-09-19T03:30:01;15.15;;;3.72;;
27543;SDS011;17996;51.056;3.656;2023-09-19T03:32:31;14.38;;;3.05;;
27543;SDS011;17996;51.056;3.656;2023-09-19T03:34:57;9.60;;;2.80;;
27543;SDS011;17996;51.056;3.656;2023-09-19T03:37:23;19.42;;;4.30;;
27543;SDS011;17996;51.056;3.656;2023-09-19T03:39:48;14.05;;;3.33;;
27543;SDS011;17996;51.056;3.656;2023-09-19T03:42:14;13.27;;;3.65;;
27543;SDS011;17996;51.056;3.656;2023-09-19T03:44:39;14.55;;;3.00;;
27543;SDS011;17996;51.056;3.656;2023-09-19T03:47:05;12.32;;;3.75;;
27543;SDS011;17996;51.056;3.656;2023-09-19T03:49:32;15.10;;;3.00;;
27543;SDS011;17996;51.056;3.656;2023-09-19T03:51:59;22.85;;;3.10;;
27543;SDS011;17996;51.056;3.656;2023-09-19T03:54:24;18.50;;;3.75;;
27543;SDS011;17996;51.056;3.656;2023-09-19T03:56:50;17.92;;;4.28;;
27543;SDS011;17996;51.056;3.656;2023-09-19T03:59:16;19.75;;;4.18;;
27543;SDS011;17996;51.056;3.656;2023-09-19T04:01:43;14.30;;;2.92;;
27543;SDS011;17996;51.056;3.656;2023-09-19T04:04:09;15.32;;;3.13;;
27543;SDS011;17996;51.056;3.656;2023-09-19T04:06:35;20.00;;;3.00;;
27543;SDS011;17996;51.056;3.656;2023-09-19T04:09:04;20.23;;;4.13;;
27543;SDS011;17996;51.056;3.656;2023-09-19T04:11:32;17.02;;;3.03;;
27543;SDS011;17996;51.056;3.656;2023-09-19T04:13:58;22.00;;;3.20;;
27543;SDS011;17996;51.056;3.656;2023-09-19T04:16:24;14.25;;;2.63;;
27543;SDS011;17996;51.056;3.656;2023-09-19T04:18:50;19.05;;;3.42;;
27543;SDS011;17996;51.056;3.656;2023-09-19T04:21:15;12.98;;;3.45;;
27543;SDS011;17996;51.056;3.656;2023-09-19T04:23:42;13.63;;;2.95;;
27543;SDS011;17996;51.056;3.656;2023-09-19T04:26:08;12.75;;;2.67;;
27543;SDS011;17996;51.056;3.656;2023-09-19T04:28:33;15.40;;;3.65;;
27543;SDS011;17996;51.056;3.656;2023-09-19T04:31:01;14.07;;;2.95;;
27543;SDS011;17996;51.056;3.656;2023-09-19T04:33:27;15.32;;;4.32;;
27543;SDS011;17996;51.056;3.656;2023-09-19T04:35:52;18.52;;;2.90;;
27543;SDS011;17996;51.056;3.656;2023-09-19T04:38:18;14.98;;;3.03;;
27543;SDS011;17996;51.056;3.656;2023-09-19T04:40:44;17.02;;;3.60;;
27543;SDS011;17996;51.056;3.656;2023-09-19T04:43:11;10.85;;;2.97;;
27543;SDS011;17996;51.056;3.656;2023-09-19T04:45:38;15.57;;;2.80;;
27543;SDS011;17996;51.056;3.656;2023-09-19T04:48:05;18.08;;;3.58;;
27543;SDS011;17996;51.056;3.656;2023-09-19T04:50:34;18.70;;;3.92;;
27543;SDS011;17996;51.056;3.656;2023-09-19T04:53:00;21.92;;;3.78;;
27543;SDS011;17996;51.056;3.656;2023-09-19T04:55:26;22.23;;;3.88;;
27543;SDS011;17996;51.056;3.656;2023-09-19T04:57:52;22.85;;;2.83;;
27543;SDS011;17996;51.056;3.656;2023-09-19T05:00:21;9.95;;;3.13;;
27543;SDS011;17996;51.056;3.656;2023-09-19T05:02:52;16.08;;;3.53;;
27543;SDS011;17996;51.056;3.656;2023-09-19T05:05:21;14.63;;;3.55;;
27543;SDS011;17996;51.056;3.656;2023-09-19T05:07:48;9.93;;;2.83;;
27543;SDS011;17996;51.056;3.656;2023-09-19T05:10:16;14.13;;;3.10;;
27543;SDS011;17996;51.056;3.656;2023-09-19T05:12:43;18.45;;;3.85;;
27543;SDS011;17996;51.056;3.656;2023-09-19T05:15:13;20.38;;;3.53;;
27543;SDS011;17996;51.056;3.656;2023-09-19T05:17:40;14.32;;;3.30;;
27543;SDS011;17996;51.056;3.656;2023-09-19T05:20:06;18.05;;;3.20;;
27543;SDS011;17996;51.056;3.656;2023-09-19T05:22:42;24.90;;;4.15;;
27543;SDS011;17996;51.056;3.656;2023-09-19T05:25:08;26.05;;;4.70;;
27543;SDS011;17996;51.056;3.656;2023-09-19T05:27:35;18.15;;;4.30;;
27543;SDS011;17996;51.056;3.656;2023-09-19T05:30:01;17.98;;;4.05;;
27543;SDS011;17996;51.056;3.656;2023-09-19T05:32:26;22.17;;;3.63;;
27543;SDS011;17996;51.056;3.656;2023-09-19T05:34:52;22.58;;;4.60;;
27543;SDS011;17996;51.056;3.656;2023-09-19T05:37:18;16.77;;;3.08;;
27543;SDS011;17996;51.056;3.656;2023-09-19T05:39:44;18.73;;;3.20;;
27543;SDS011;17996;51.056;3.656;2023-09-19T05:42:10;23.83;;;4.00;;
27543;SDS011;17996;51.056;3.656;2023-09-19T05:44:36;16.33;;;3.60;;
27543;SDS011;17996;51.056;3.656;2023-09-19T05:47:04;25.00;;;5.30;;
27543;SDS011;17996;51.056;3.656;2023-09-19T05:49:30;15.32;;;3.42;;
27543;SDS011;17996;51.056;3.656;2023-09-19T05:51:56;17.13;;;3.15;;
27543;SDS011;17996;51.056;3.656;2023-09-19T05:54:24;14.20;;;3.22;;
27543;SDS011;17996;51.056;3.656;2023-09-19T05:56:49;21.92;;;3.60;;
27543;SDS011;17996;51.056;3.656;2023-09-19T05:59:18;23.57;;;4.23;;
27543;SDS011;17996;51.056;3.656;2023-09-19T06:01:44;13.40;;;3.08;;
27543;SDS011;17996;51.056;3.656;2023-09-19T06:04:11;12.90;;;3.40;;
27543;SDS011;17996;51.056;3.656;2023-09-19T06:06:36;16.45;;;2.88;;
27543;SDS011;17996;51.056;3.656;2023-09-19T06:09:05;20.67;;;3.53;;
27543;SDS011;17996;51.056;3.656;2023-09-19T06:11:33;14.35;;;3.17;;
27543;SDS011;17996;51.056;3.656;2023-09-19T06:14:00;19.35;;;3.58;;
27543;SDS011;17996;51.056;3.656;2023-09-19T06:16:27;19.55;;;3.70;;
27543;SDS011;17996;51.056;3.656;2023-09-19T06:18:54;18.85;;;3.47;;
27543;SDS011;17996;51.056;3.656;2023-09-19T06:21:21;12.30;;;3.13;;
27543;SDS011;17996;51.056;3.656;2023-09-19T06:23:48;11.68;;;2.90;;
27543;SDS011;17996;51.056;3.656;2023-09-19T06:26:14;17.05;;;3.03;;
27543;SDS011;17996;51.056;3.656;2023-09-19T06:28:39;18.27;;;3.45;;
27543;SDS011;17996;51.056;3.656;2023-09-19T06:31:06;15.00;;;4.00;;
27543;SDS011;17996;51.056;3.656;2023-09-19T06:33:38;18.40;;;3.38;;
27543;SDS011;17996;51.056;3.656;2023-09-19T06:36:08;19.38;;;2.83;;
27543;SDS011;17996;51.056;3.656;2023-09-19T06:38:33;20.50;;;3.38;;
27543;SDS011;17996;51.056;3.656;2023-09-19T06:41:01;19.83;;;3.65;;
27543;SDS011;17996;51.056;3.656;2023-09-19T06:43:30;22.20;;;3.72;;
27543;SDS011;17996;51.056;3.656;2023-09-19T06:45:56;17.77;;;4.28;;
27543;SDS011;17996;51.056;3.656;2023-09-19T06:48:22;20.40;;;4.53;;
27543;SDS011;17996;51.056;3.656;2023-09-19T06:50:50;11.05;;;2.92;;
27543;SDS011;17996;51.056;3.656;2023-09-19T06:53:16;15.57;;;3.88;;
27543;SDS011;17996;51.056;3.656;2023-09-19T06:55:42;13.48;;;2.85;;
27543;SDS011;17996;51.056;3.656;2023-09-19T06:58:09;21.20;;;4.22;;
27543;SDS011;17996;51.056;3.656;2023-09-19T07:00:35;15.88;;;2.67;;
27543;SDS011;17996;51.056;3.656;2023-09-19T07:05:29;16.67;;;3.70;;
27543;SDS011;17996;51.056;3.656;2023-09-19T07:07:59;13.90;;;3.30;;
27543;SDS011;17996;51.056;3.656;2023-09-19T07:10:26;10.70;;;2.60;;
27543;SDS011;17996;51.056;3.656;2023-09-19T07:13:03;13.82;;;3.22;;
27543;SDS011;17996;51.056;3.656;2023-09-19T07:15:32;13.20;;;2.88;;
27543;SDS011;17996;51.056;3.656;2023-09-19T07:18:04;17.35;;;3.08;;
27543;SDS011;17996;51.056;3.656;2023-09-19T07:20:31;15.82;;;3.13;;
27543;SDS011;17996;51.056;3.656;2023-09-19T07:22:57;14.82;;;3.33;;
27543;SDS011;17996;51.056;3.656;2023-09-19T07:25:29;15.20;;;2.78;;
27543;SDS011;17996;51.056;3.656;2023-09-19T07:30:21;15.57;;;2.95;;
27543;SDS011;17996;51.056;3.656;2023-09-19T07:32:47;16.90;;;3.20;;
27543;SDS011;17996;51.056;3.656;2023-09-19T07:35:13;16.38;;;3.40;;
27543;SDS011;17996;51.056;3.656;2023-09-19T07:37:40;17.75;;;3.95;;
27543;SDS011;17996;51.056;3.656;2023-09-19T07:40:06;16.33;;;2.72;;
27543;SDS011;17996;51.056;3.656;2023-09-19T07:42:33;12.45;;;2.70;;
27543;SDS011;17996;51.056;3.656;2023-09-19T07:45:02;11.00;;;2.83;;
27543;SDS011;17996;51.056;3.656;2023-09-19T07:47:28;22.88;;;3.53;;
27543;SDS011;17996;51.056;3.656;2023-09-19T07:49:55;17.92;;;3.97;;
27543;SDS011;17996;51.056;3.656;2023-09-19T07:52:21;16.10;;;2.97;;
27543;SDS011;17996;51.056;3.656;2023-09-19T07:54:48;23.42;;;3.63;;
27543;SDS011;17996;51.056;3.656;2023-09-19T07:57:14;20.83;;;4.07;;
27543;SDS011;17996;51.056;3.656;2023-09-19T07:59:40;18.17;;;3.20;;
27543;SDS011;17996;51.056;3.656;2023-09-19T08:02:07;10.32;;;2.67;;
27543;SDS011;17996;51.056;3.656;2023-09-19T08:04:41;18.88;;;3.17;;
27543;SDS011;17996;51.056;3.656;2023-09-19T08:07:07;17.50;;;3.80;;
27543;SDS011;17996;51.056;3.656;2023-09-19T08:09:34;14.35;;;3.03;;
27543;SDS011;17996;51.056;3.656;2023-09-19T08:11:59;17.65;;;2.95;;
27543;SDS011;17996;51.056;3.656;2023-09-19T08:14:30;17.42;;;2.80;;
27543;SDS011;17996;51.056;3.656;2023-09-19T08:16:56;17.20;;;3.38;;
27543;SDS011;17996;51.056;3.656;2023-09-19T08:19:24;18.67;;;3.97;;
27543;SDS011;17996;51.056;3.656;2023-09-19T08:21:53;13.02;;;3.33;;
27543;SDS011;17996;51.056;3.656;2023-09-19T08:24:26;19.08;;;4.95;;
27543;SDS011;17996;51.056;3.656;2023-09-19T08:26:56;17.35;;;3.72;;
27543;SDS011;17996;51.056;3.656;2023-09-19T08:29:23;15.70;;;4.47;;
27543;SDS011;17996;51.056;3.656;2023-09-19T08:31:55;15.43;;;3.38;;
27543;SDS011;17996;51.056;3.656;2023-09-19T08:34:22;20.13;;;3.30;;
27543;SDS011;17996;51.056;3.656;2023-09-19T08:36:54;15.52;;;3.40;;
27543;SDS011;17996;51.056;3.656;2023-09-19T08:39:26;20.25;;;5.18;;
27543;SDS011;17996;51.056;3.656;2023-09-19T08:41:58;17.25;;;3.40;;
27543;SDS011;17996;51.056;3.656;2023-09-19T08:44:25;23.02;;;3.03;;
27543;SDS011;17996;51.056;3.656;2023-09-19T08:46:54;13.48;;;2.75;;
27543;SDS011;17996;51.056;3.656;2023-09-19T08:49:33;14.80;;;3.28;;
27543;SDS011;17996;51.056;3.656;2023-09-19T08:55:07;12.38;;;2.50;;
27543;SDS011;17996;51.056;3.656;2023-09-19T08:57:45;18.27;;;3.55;;
27543;SDS011;17996;51.056;3.656;2023-09-19T09:00:14;14.40;;;3.00;;
27543;SDS011;17996;51.056;3.656;2023-09-19T09:02:42;11.25;;;2.53;;
27543;SDS011;17996;51.056;3.656;2023-09-19T09:05:11;16.50;;;3.28;;
27543;SDS011;17996;51.056;3.656;2023-09-19T09:07:38;15.02;;;3.05;;
27543;SDS011;17996;51.056;3.656;2023-09-19T09:10:05;13.27;;;3.05;;
27543;SDS011;17996;51.056;3.656;2023-09-19T09:12:32;10.65;;;2.80;;
27543;SDS011;17996;51.056;3.656;2023-09-19T09:15:02;14.25;;;3.13;;
27543;SDS011;17996;51.056;3.656;2023-09-19T09:17:29;18.67;;;2.60;;
27543;SDS011;17996;51.056;3.656;2023-09-19T09:19:55;16.73;;;2.65;;
27543;SDS011;17996;51.056;3.656;2023-09-19T09:22:22;13.88;;;2.60;;
27543;SDS011;17996;51.056;3.656;2023-09-19T09:24:55;11.63;;;2.78;;
27543;SDS011;17996;51.056;3.656;2023-09-19T09:27:23;15.52;;;2.95;;
27543;SDS011;17996;51.056;3.656;2023-09-19T09:29:49;18.23;;;3.17;;
27543;SDS011;17996;51.056;3.656;2023-09-19T09:34:49;15.45;;;2.45;;
27543;SDS011;17996;51.056;3.656;2023-09-19T09:37:17;11.23;;;2.60;;
27543;SDS011;17996;51.056;3.656;2023-09-19T09:39:50;6.70;;;2.00;;
27543;SDS011;17996;51.056;3.656;2023-09-19T09:42:56;18.67;;;2.38;;
27543;SDS011;17996;51.056;3.656;2023-09-19T09:45:24;13.55;;;2.17;;
27543;SDS011;17996;51.056;3.656;2023-09-19T09:47:59;8.85;;;2.13;;
27543;SDS011;17996;51.056;3.656;2023-09-19T09:50:32;11.18;;;2.15;;
27543;SDS011;17996;51.056;3.656;2023-09-19T09:53:27;12.60;;;2.47;;
27543;SDS011;17996;51.056;3.656;2023-09-19T09:58:22;15.75;;;2.53;;
27543;SDS011;17996;51.056;3.656;2023-09-19T10:00:54;14.88;;;2.50;;
27543;SDS011;17996;51.056;3.656;2023-09-19T10:03:36;11.57;;;2.58;;
27543;SDS011;17996;51.056;3.656;2023-09-19T10:06:06;9.73;;;2.30;;
27543;SDS011;17996;51.056;3.656;2023-09-19T10:11:45;10.48;;;2.40;;
27543;SDS011;17996;51.056;3.656;2023-09-19T10:14:24;16.35;;;2.97;;
27543;SDS011;17996;51.056;3.656;2023-09-19T10:16:56;10.07;;;2.53;;
27543;SDS011;17996;51.056;3.656;2023-09-19T10:22:26;6.65;;;1.98;;
27543;SDS011;17996;51.056;3.656;2023-09-19T10:24:57;10.88;;;1.70;;
27543;SDS011;17996;51.056;3.656;2023-09-19T10:27:25;8.02;;;2.20;;
27543;SDS011;17996;51.056;3.656;2023-09-19T10:29:51;20.98;;;2.33;;
27543;SDS011;17996;51.056;3.656;2023-09-19T10:32:22;7.60;;;1.27;;
27543;SDS011;17996;51.056;3.656;2023-09-19T10:34:49;10.10;;;1.98;;
27543;SDS011;17996;51.056;3.656;2023-09-19T10:37:17;7.70;;;1.75;;
27543;SDS011;17996;51.056;3.656;2023-09-19T10:39:46;8.63;;;1.45;;
27543;SDS011;17996;51.056;3.656;2023-09-19T10:42:14;15.02;;;2.38;;
27543;SDS011;17996;51.056;3.656;2023-09-19T10:44:45;5.55;;;1.42;;
27543;SDS011;17996;51.056;3.656;2023-09-19T10:47:18;11.07;;;1.77;;
27543;SDS011;17996;51.056;3.656;2023-09-19T10:49:45;6.30;;;1.50;;
27543;SDS011;17996;51.056;3.656;2023-09-19T10:52:12;13.48;;;2.13;;
27543;SDS011;17996;51.056;3.656;2023-09-19T10:54:51;13.55;;;1.77;;
27543;SDS011;17996;51.056;3.656;2023-09-19T10:57:24;2.85;;;1.10;;
27543;SDS011;17996;51.056;3.656;2023-09-19T11:00:02;7.50;;;1.75;;
27543;SDS011;17996;51.056;3.656;2023-09-19T11:03:03;3.90;;;1.15;;
27543;SDS011;17996;51.056;3.656;2023-09-19T11:05:43;3.95;;;1.33;;
27543;SDS011;17996;51.056;3.656;2023-09-19T11:11:47;9.10;;;1.45;;
27543;SDS011;17996;51.056;3.656;2023-09-19T11:30:34;5.80;;;1.52;;
27543;SDS011;17996;51.056;3.656;2023-09-19T11:49:24;7.18;;;1.40;;
27543;SDS011;17996;51.056;3.656;2023-09-19T11:51:54;7.20;;;1.48;;
27543;SDS011;17996;51.056;3.656;2023-09-19T11:54:21;8.98;;;1.73;;
27543;SDS011;17996;51.056;3.656;2023-09-19T11:56:48;8.07;;;2.00;;
27543;SDS011;17996;51.056;3.656;2023-09-19T11:59:22;8.68;;;1.70;;
27543;SDS011;17996;51.056;3.656;2023-09-19T12:01:56;4.32;;;1.42;;
27543;SDS011;17996;51.056;3.656;2023-09-19T12:04:44;5.72;;;1.50;;
27543;SDS011;17996;51.056;3.656;2023-09-19T12:07:14;7.43;;;1.70;;
27543;SDS011;17996;51.056;3.656;2023-09-19T12:09:41;9.68;;;1.80;;
27543;SDS011;17996;51.056;3.656;2023-09-19T12:12:09;10.32;;;2.55;;
27543;SDS011;17996;51.056;3.656;2023-09-19T12:14:42;5.78;;;2.13;;
27543;SDS011;17996;51.056;3.656;2023-09-19T12:17:16;4.80;;;1.40;;
27543;SDS011;17996;51.056;3.656;2023-09-19T12:19:53;9.60;;;1.80;;
27543;SDS011;17996;51.056;3.656;2023-09-19T12:22:20;8.95;;;1.73;;
27543;SDS011;17996;51.056;3.656;2023-09-19T12:24:46;10.02;;;2.33;;
27543;SDS011;17996;51.056;3.656;2023-09-19T12:27:12;9.85;;;2.17;;
27543;SDS011;17996;51.056;3.656;2023-09-19T12:29:44;5.07;;;2.00;;
27543;SDS011;17996;51.056;3.656;2023-09-19T12:32:13;8.30;;;2.20;;
27543;SDS011;17996;51.056;3.656;2023-09-19T12:34:41;6.20;;;1.55;;
27543;SDS011;17996;51.056;3.656;2023-09-19T12:37:08;12.98;;;2.08;;
27543;SDS011;17996;51.056;3.656;2023-09-19T12:39:41;5.85;;;2.05;;
27543;SDS011;17996;51.056;3.656;2023-09-19T12:42:09;8.73;;;1.95;;
27543;SDS011;17996;51.056;3.656;2023-09-19T12:44:42;8.45;;;2.00;;
27543;SDS011;17996;51.056;3.656;2023-09-19T12:47:16;7.75;;;2.15;;
27543;SDS011;17996;51.056;3.656;2023-09-19T12:52:45;7.50;;;2.40;;
27543;SDS011;17996;51.056;3.656;2023-09-19T12:55:20;7.10;;;2.30;;
27543;SDS011;17996;51.056;3.656;2023-09-19T13:00:41;8.70;;;2.15;;
27543;SDS011;17996;51.056;3.656;2023-09-19T13:03:24;5.28;;;1.90;;
27543;SDS011;17996;51.056;3.656;2023-09-19T13:05:54;9.90;;;2.15;;
27543;SDS011;17996;51.056;3.656;2023-09-19T13:08:21;7.88;;;2.42;;
27543;SDS011;17996;51.056;3.656;2023-09-19T13:11:09;8.65;;;2.33;;
27543;SDS011;17996;51.056;3.656;2023-09-19T13:13:40;7.40;;;2.47;;
27543;SDS011;17996;51.056;3.656;2023-09-19T13:16:06;7.55;;;2.45;;
27543;SDS011;17996;51.056;3.656;2023-09-19T13:18:43;7.00;;;2.25;;
27543;SDS011;17996;51.056;3.656;2023-09-19T13:21:11;9.10;;;2.20;;
27543;SDS011;17996;51.056;3.656;2023-09-19T13:23:48;10.40;;;2.42;;
27543;SDS011;17996;51.056;3.656;2023-09-19T13:26:14;7.75;;;2.00;;
27543;SDS011;17996;51.056;3.656;2023-09-19T13:28:40;10.68;;;2.08;;
27543;SDS011;17996;51.056;3.656;2023-09-19T13:31:06;9.45;;;2.35;;
27543;SDS011;17996;51.056;3.656;2023-09-19T13:33:33;10.27;;;2.22;;
27543;SDS011;17996;51.056;3.656;2023-09-19T13:35:59;10.73;;;2.35;;
27543;SDS011;17996;51.056;3.656;2023-09-19T13:38:24;8.00;;;2.67;;
27543;SDS011;17996;51.056;3.656;2023-09-19T13:40:50;5.65;;;2.35;;
27543;SDS011;17996;51.056;3.656;2023-09-19T13:43:17;8.23;;;2.22;;
27543;SDS011;17996;51.056;3.656;2023-09-19T13:45:43;3.38;;;1.67;;
27543;SDS011;17996;51.056;3.656;2023-09-19T13:48:09;7.80;;;1.75;;
27543;SDS011;17996;51.056;3.656;2023-09-19T13:50:36;11.60;;;3.13;;
27543;SDS011;17996;51.056;3.656;2023-09-19T13:53:07;14.65;;;2.88;;
27543;SDS011;17996;51.056;3.656;2023-09-19T13:55:33;10.20;;;2.65;;
27543;SDS011;17996;51.056;3.656;2023-09-19T13:57:59;7.80;;;3.13;;
27543;SDS011;17996;51.056;3.656;2023-09-19T14:00:25;12.10;;;2.45;;
27543;SDS011;17996;51.056;3.656;2023-09-19T14:02:52;11.55;;;2.60;;
27543;SDS011;17996;51.056;3.656;2023-09-19T14:05:18;9.75;;;2.45;;
27543;SDS011;17996;51.056;3.656;2023-09-19T14:07:43;6.97;;;2.17;;
27543;SDS011;17996;51.056;3.656;2023-09-19T14:10:11;7.97;;;2.58;;
27543;SDS011;17996;51.056;3.656;2023-09-19T14:12:37;11.45;;;2.20;;
27543;SDS011;17996;51.056;3.656;2023-09-19T14:15:05;8.32;;;2.17;;
27543;SDS011;17996;51.056;3.656;2023-09-19T14:17:33;7.80;;;2.55;;
27543;SDS011;17996;51.056;3.656;2023-09-19T14:19:59;6.32;;;2.28;;
27543;SDS011;17996;51.056;3.656;2023-09-19T14:22:24;8.23;;;2.30;;
27543;SDS011;17996;51.056;3.656;2023-09-19T14:24:50;9.98;;;2.25;;
27543;SDS011;17996;51.056;3.656;2023-09-19T14:27:17;6.40;;;1.70;;
27543;SDS011;17996;51.056;3.656;2023-09-19T14:29:42;9.63;;;2.47;;
27543;SDS011;17996;51.056;3.656;2023-09-19T14:32:08;9.20;;;2.35;;
27543;SDS011;17996;51.056;3.656;2023-09-19T14:34:34;11.10;;;2.75;;
27543;SDS011;17996;51.056;3.656;2023-09-19T14:37:01;7.75;;;2.08;;
27543;SDS011;17996;51.056;3.656;2023-09-19T14:39:29;12.95;;;3.75;;
27543;SDS011;17996;51.056;3.656;2023-09-19T14:41:54;7.68;;;2.47;;
27543;SDS011;17996;51.056;3.656;2023-09-19T14:44:20;10.25;;;2.63;;
27543;SDS011;17996;51.056;3.656;2023-09-19T14:46:46;13.32;;;2.58;;
27543;SDS011;17996;51.056;3.656;2023-09-19T14:49:11;7.28;;;2.00;;
27543;SDS011;17996;51.056;3.656;2023-09-19T14:51:37;11.73;;;3.20;;
27543;SDS011;17996;51.056;3.656;2023-09-19T14:54:07;7.68;;;2.22;;
27543;SDS011;17996;51.056;3.656;2023-09-19T14:56:33;16.58;;;3.83;;
27543;SDS011;17996;51.056;3.656;2023-09-19T14:58:59;15.27;;;3.45;;
27543;SDS011;17996;51.056;3.656;2023-09-19T15:01:25;16.73;;;4.03;;
27543;SDS011;17996;51.056;3.656;2023-09-19T15:03:51;7.45;;;2.35;;
27543;SDS011;17996;51.056;3.656;2023-09-19T15:06:16;10.13;;;3.28;;
27543;SDS011;17996;51.056;3.656;2023-09-19T15:08:45;9.00;;;3.00;;
27543;SDS011;17996;51.056;3.656;2023-09-19T15:11:12;12.73;;;3.00;;
27543;SDS011;17996;51.056;3.656;2023-09-19T15:13:42;10.07;;;2.40;;
27543;SDS011;17996;51.056;3.656;2023-09-19T15:16:09;11.45;;;2.70;;
27543;SDS011;17996;51.056;3.656;2023-09-19T15:18:36;14.70;;;3.45;;
27543;SDS011;17996;51.056;3.656;2023-09-19T15:21:03;10.57;;;2.58;;
27543;SDS011;17996;51.056;3.656;2023-09-19T15:23:29;6.40;;;2.13;;
27543;SDS011;17996;51.056;3.656;2023-09-19T15:25:57;13.73;;;3.13;;
27543;SDS011;17996;51.056;3.656;2023-09-19T15:28:23;9.82;;;2.88;;
27543;SDS011;17996;51.056;3.656;2023-09-19T15:30:49;9.90;;;2.65;;
27543;SDS011;17996;51.056;3.656;2023-09-19T15:33:15;8.70;;;2.28;;
27543;SDS011;17996;51.056;3.656;2023-09-19T15:35:41;12.32;;;2.90;;
27543;SDS011;17996;51.056;3.656;2023-09-19T15:38:07;10.50;;;2.67;;
27543;SDS011;17996;51.056;3.656;2023-09-19T15:40:33;14.60;;;2.95;;
27543;SDS011;17996;51.056;3.656;2023-09-19T15:42:59;7.15;;;2.00;;
27543;SDS011;17996;51.056;3.656;2023-09-19T15:45:25;7.57;;;3.10;;
27543;SDS011;17996;51.056;3.656;2023-09-19T15:47:51;12.68;;;3.55;;
27543;SDS011;17996;51.056;3.656;2023-09-19T15:50:17;10.63;;;2.78;;
27543;SDS011;17996;51.056;3.656;2023-09-19T15:52:43;13.98;;;3.35;;
27543;SDS011;17996;51.056;3.656;2023-09-19T15:55:09;9.13;;;2.97;;
27543;SDS011;17996;51.056;3.656;2023-09-19T15:57:36;11.82;;;3.05;;
27543;SDS011;17996;51.056;3.656;2023-09-19T16:00:03;10.35;;;2.80;;
27543;SDS011;17996;51.056;3.656;2023-09-19T16:02:35;6.88;;;2.70;;
27543;SDS011;17996;51.056;3.656;2023-09-19T16:05:01;11.00;;;3.00;;
27543;SDS011;17996;51.056;3.656;2023-09-19T16:07:30;13.05;;;3.13;;
27543;SDS011;17996;51.056;3.656;2023-09-19T16:09:56;13.93;;;3.00;;